Terminal Aerodrome Forecast
Issued by NWS

Home | Current Version | Previous Version | Text Only | Print | Product List | Glossary On
Versions: 1 2 3 4 5 6 7 8 9 10 11 12 13 14 15 16 17 18 19 20 21
965
FTUS43 KICT 191739
TAFCNU
TAF
KCNU 191739Z 1918/2018 18008KT 6SM BR OVC004
     FM192100 16008KT P6SM OVC008
     FM192300 13006KT P6SM OVC015
     FM200300 12004KT 2SM -DZ BR BKN003
     FM200900 12004KT 1/2SM -DZ FG BKN003
     FM201500 14005KT P6SM BKN003=

USA.gov is the U.S. government's official web portal to all federal, state and local government web resources and services.